Terminal Aerodrome Forecast
Issued by NWS

Home | Current Version | Previous Version | Text Only | Print | Product List | Glossary On
Versions: 1 2 3 4 5 6 7 8 9 10 11 12 13 14 15 16 17 18 19 20 21 22
000
FTAK31 PAJN 281400 AAB
TAFASI
TAF AMD
PASI 281403Z 2814/2912 21008KT 6SM -SHRA BR BKN015 OVC025
      TEMPO 2814/2816 21011G18KT 2SM -SHRA BR BKN006 OVC015
     FM281800 22008KT P6SM -SHRA BKN020 OVC040
     FM290000 20006KT 4SM -SHRA BR OVC015
     FM290600 18006KT P6SM -SHRA BKN015 OVC025
     FM290900 14005KT P6SM -SHRA OVC015=

USA.gov is the U.S. government's official web portal to all federal, state and local government web resources and services.